Alexandria, VA (22305)

9:58 AM EDT on August 25, 2016 (GMT -0400)
Alexandria, VA | | Change Station

Elev 33 ft 38.84 °N, 77.07 °W | Updated 9 seconds ago

Overcast
Overcast
79.0 °F
Feels Like 77 °F
N
3.8
Wind Variable Wind from ENE
Gusts 3.8 mph

Today
High -- | Low -- °F
--% Chance of Precip.
Yesterday
High -- | Low -- °F
Precip. -- in
Pressure 30.11 in
Visibility 10.0 miles
Clouds Few 14000 ft
Overcast 25000 ft
Heat Index 77 °F
Dew Point Not available.
Humidity Not available.
Rainfall 0.00 in
Snow Depth Not available.
6:31 AM 7:48 PM
Last Quarter, 45% visible
METAR KDCA 251352Z 17009KT 10SM FEW140 OVC250 27/21 A3011 RMK AO2 SLP195 T02670206
Pressure 30.11 in
Visibility 10.0 miles
Clouds Few 14000 ft
Overcast 25000 ft
Heat Index 77 °F
Dew Point Not available.
Humidity Not available.
Rainfall 0.00 in
Snow Depth Not available.
6:31 AM 7:48 PM
Last Quarter, 45% visible
METAR KDCA 251352Z 17009KT 10SM FEW140 OVC250 27/21 A3011 RMK AO2 SLP195 T02670206

10-Day Weather Forecast

Almanac

Astronomy

Aug. 25, 2016 Rise Set
Actual Time
Civil Twilight
Nautical Twilight
Astronomical Twilight
Moon
Length of Visible Light
Length of Day
Tomorrow will be .
, % of the Moon is Illuminated

Today's Extremes

State Highs State Lows

Community

WunderPhotos

Upload Photos

1,934,847 photos uploaded!

WunderBlog® & News

Nearby

Air Quality

  Air Quality AQ Index Pollutant
Not available.

Snow Depth

Station Depth Elevation

Earthquake Activity

City Distance Mag. Time & Date
Minimum magnitude displayed is 2.5.

Coastal Water Temperatures

Place Temperature

Stations

Nearby Weather Stations

Station Location Temp. Windchill Dew Point Humidity Wind Precip. Elev Updated Type
                   

Watches & Warnings

There are currently no watches in effect.